KOTG

Details ICAO KOTG
Name WORTHINGTON MUNI
Region United States
Timezone America/Chicago (UTC-6.0)
Plans Departing 1
Arriving 0
Stats Elevation 1,574 ft / 480 m (AMSL)
Location 43.655158° -95.579714°
Runways 2
Magnetic Variation 2.167° E
Sunrise 2017-12-15 13:50:31 UTC / 2017-12-15 07:50:31 Local
Sunset 2017-12-15 22:47:28 UTC / 2017-12-15 16:47:28 Local
Advertisement - Login to hide

Runways

ID Width Length Bearing (true) Bearing (mag) Surface Threshold Offset Overrun Length
11 100 ft / 30 m 5,496 ft / 1,675 m 114.80° 112.63° Asphalt 0 ft / 0 m 0 ft / 0 m
17 100 ft / 30 m 4,205 ft / 1,282 m 179.97° 177.80° Asphalt 0 ft / 0 m 0 ft / 0 m
29 100 ft / 30 m 5,496 ft / 1,675 m 294.81° 292.64° Asphalt 0 ft / 0 m 0 ft / 0 m
35 100 ft / 30 m 4,205 ft / 1,282 m 359.97° 357.80° Asphalt 0 ft / 0 m 800 ft / 244 m

Map

Weather


0- 5 10 15 20 25 30 35+ Temperature / ° C

Clouds and Precipitation
Forecast for 2017-12-15 12:00 UTC. Updated an hour ago

Ground ~20,000 ft ~40,000 ft Winds

METAR

KOTG 150956Z AUTO 25013KT 9SM -SN OVC046 M03/M04 A2994 RMK AO2 SLP163 P0000 T10281039 FZRANO

TAF

Not found

Frequencies

Unicom 122.80 MHz CTAF/UNICOM
Warning: Do not use this data for real-world aviation or navigation. No guarantee of current accuracy is given.